Time;durP1;ratioP1;P1;durP2;ratioP2;P2;SDS_P1;SDS_P2;PMS_P1;PMS_P2;Temp;Humidity;BMP_temperature;BMP_pressure;BME280_temperature;BME280_humidity;BME280_pressure;Samples;Min_cycle;Max_cycle;Signal;HPM_P1;HPM_P2
2023/03/17 00:00:34;;;;;;;;;;;;;;;-0.02;100.00;97828.46;109946;1245;68352;-71
2023/03/17 00:03:20;;;;;;;;;;;;;;;-0.06;99.25;97828.70;109766;1244;59715;-71
2023/03/17 00:05:51;;;;;;;;;;;;;;;-0.09;97.39;97834.61;109833;1244;59677;-71
2023/03/17 00:08:27;;;;;;;;;;;;;;;-0.13;96.36;97836.77;109940;1244;71238;-71
2023/03/17 00:10:56;;;;;;;;;;;;;;;-0.17;95.43;97833.42;109822;1245;68491;-71
2023/03/17 00:13:27;;;;;;;;;;;;;;;-0.20;96.11;97834.52;110035;1244;69318;-71
2023/03/17 00:16:00;;;;;;;;;;;;;;;-0.23;96.48;97833.73;109854;1245;59683;-70
2023/03/17 00:18:30;;;;;;;;;;;;;;;-0.24;96.79;97837.86;109802;1244;59750;-71
2023/03/17 00:20:59;;;;;;;;;;;;;;;-0.27;96.68;97836.73;109835;1244;71779;-71
2023/03/17 00:23:28;;;;;;;;;;;;;;;-0.28;96.69;97833.00;109830;1244;69856;-70
2023/03/17 00:25:57;;;;;;;;;;;;;;;-0.28;96.48;97834.02;109920;1248;69634;-71
2023/03/17 00:28:26;;;;;;;;;;;;;;;-0.27;96.24;97836.41;110059;1244;59708;-71
2023/03/17 00:30:58;;;;;;;;;;;;;;;-0.27;95.56;97838.45;109964;1244;59840;-71
2023/03/17 00:33:29;;;;;;;;;;;;;;;-0.25;95.34;97838.40;109786;1244;72013;-71
2023/03/17 00:35:58;;;;;;;;;;;;;;;-0.20;94.54;97841.05;109877;1244;69115;-72
2023/03/17 00:38:28;;;;;;;;;;;;;;;-0.16;93.39;97837.86;109989;1244;69422;-71
2023/03/17 00:40:59;;;;;;;;;;;;;;;-0.12;92.75;97839.13;109968;1244;59675;-71
2023/03/17 00:43:29;;;;;;;;;;;;;;;-0.08;92.28;97839.91;109854;1245;59708;-71
2023/03/17 00:45:59;;;;;;;;;;;;;;;-0.05;91.10;97838.29;109995;1243;71399;-71
2023/03/17 00:48:30;;;;;;;;;;;;;;;-0.04;90.81;97839.63;109823;1245;69242;-71
2023/03/17 00:51:00;;;;;;;;;;;;;;;-0.04;88.86;97841.19;109903;1244;68249;-71
2023/03/17 00:53:29;;;;;;;;;;;;;;;-0.05;88.33;97836.41;110008;1244;59667;-71
2023/03/17 00:55:59;;;;;;;;;;;;;;;-0.07;86.59;97841.58;110004;1244;59682;-71
2023/03/17 00:58:32;;;;;;;;;;;;;;;-0.08;86.13;97838.86;110134;1242;71237;-70
2023/03/17 01:01:04;;;;;;;;;;;;;;;-0.09;85.04;97837.35;109997;1244;70292;-70
2023/03/17 01:03:36;;;;;;;;;;;;;;;-0.09;85.78;97837.88;109901;1242;69407;-69
2023/03/17 01:06:09;;;;;;;;;;;;;;;-0.12;86.22;97839.98;110006;1244;59683;-70
2023/03/17 01:08:40;;;;;;;;;;;;;;;-0.14;86.28;97841.41;110117;1245;59706;-70
2023/03/17 01:11:17;;;;;;;;;;;;;;;-0.16;85.13;97840.07;110083;1244;70584;-71
2023/03/17 01:13:48;;;;;;;;;;;;;;;-0.16;84.56;97840.77;110107;1242;69219;-71
2023/03/17 01:16:18;;;;;;;;;;;;;;;-0.17;82.82;97841.65;110353;1244;70199;-71
2023/03/17 01:18:48;;;;;;;;;;;;;;;-0.18;82.81;97839.45;110115;1244;59759;-70
2023/03/17 01:21:18;;;;;;;;;;;;;;;-0.21;83.19;97839.34;110021;1243;59751;-70
2023/03/17 01:23:48;;;;;;;;;;;;;;;-0.26;82.60;97835.00;110105;1245;70666;-70
2023/03/17 01:26:18;;;;;;;;;;;;;;;-0.31;83.96;97834.09;109938;1244;68614;-71
2023/03/17 01:28:48;;;;;;;;;;;;;;;-0.35;81.48;97835.38;109995;1244;68844;-71
2023/03/17 01:31:19;;;;;;;;;;;;;;;-0.38;80.07;97834.92;109873;1244;59748;-71
2023/03/17 01:33:50;;;;;;;;;;;;;;;-0.42;79.91;97838.62;109967;1245;59701;-71
2023/03/17 01:36:20;;;;;;;;;;;;;;;-0.46;80.49;97837.67;109918;1245;72077;-71
2023/03/17 01:38:50;;;;;;;;;;;;;;;-0.50;82.01;97838.98;109930;1244;68479;-71
2023/03/17 01:41:20;;;;;;;;;;;;;;;-0.56;82.80;97842.34;109865;1244;69315;-70
2023/03/17 01:43:51;;;;;;;;;;;;;;;-0.60;83.78;97846.54;109914;1245;59749;-71
2023/03/17 01:46:26;;;;;;;;;;;;;;;-0.66;83.07;97845.46;109885;1244;59673;-70
2023/03/17 01:49:04;;;;;;;;;;;;;;;-0.74;82.68;97845.64;109791;1245;71755;-71
2023/03/17 01:51:46;;;;;;;;;;;;;;;-0.84;82.51;97849.95;110024;1244;68583;-70
2023/03/17 01:54:24;;;;;;;;;;;;;;;-0.96;83.44;97856.19;109909;1244;69147;-71
2023/03/17 01:56:58;;;;;;;;;;;;;;;-1.08;84.38;97857.10;109946;1246;59948;-70
2023/03/17 01:59:31;;;;;;;;;;;;;;;-1.19;84.35;97859.86;109961;1245;59730;-70
2023/03/17 02:02:07;;;;;;;;;;;;;;;-1.27;84.17;97861.91;110077;1243;71416;-70
2023/03/17 02:04:41;;;;;;;;;;;;;;;-1.34;84.49;97859.48;109952;1245;69218;-70
2023/03/17 02:07:13;;;;;;;;;;;;;;;-1.41;84.21;97860.80;110082;1242;68910;-70
2023/03/17 02:09:44;;;;;;;;;;;;;;;-1.47;84.32;97862.77;109842;1246;59769;-70
2023/03/17 02:12:14;;;;;;;;;;;;;;;-1.53;86.15;97865.45;109991;1244;59718;-70
2023/03/17 02:14:46;;;;;;;;;;;;;;;-1.59;85.64;97864.01;109803;1244;71386;-70
2023/03/17 02:17:17;;;;;;;;;;;;;;;-1.66;85.44;97863.78;109930;1245;69244;-70
2023/03/17 02:19:49;;;;;;;;;;;;;;;-1.73;85.37;97866.98;109915;1243;68594;-70
2023/03/17 02:22:20;;;;;;;;;;;;;;;-1.81;85.48;97874.13;109988;1245;59731;-70
2023/03/17 02:24:52;;;;;;;;;;;;;;;-1.88;85.61;97875.94;110024;1243;59766;-71
2023/03/17 02:27:35;;;;;;;;;;;;;;;-1.95;85.54;97877.08;110170;1242;71548;-70
2023/03/17 02:30:15;;;;;;;;;;;;;;;-2.02;85.97;97882.64;109962;1245;69243;-70
2023/03/17 02:32:50;;;;;;;;;;;;;;;-2.06;86.41;97882.02;109886;1245;68683;-70
2023/03/17 02:35:24;;;;;;;;;;;;;;;-2.09;87.28;97881.55;109877;1242;59673;-70
2023/03/17 02:37:55;;;;;;;;;;;;;;;-2.11;88.30;97882.61;109854;1243;59702;-71
2023/03/17 02:40:26;;;;;;;;;;;;;;;-2.13;88.91;97885.54;110036;1243;70488;-70
2023/03/17 02:42:58;;;;;;;;;;;;;;;-2.15;88.66;97888.14;110081;1244;69236;-70
2023/03/17 02:45:31;;;;;;;;;;;;;;;-2.18;89.42;97893.30;109837;1245;68507;-70
2023/03/17 02:48:02;;;;;;;;;;;;;;;-2.26;90.10;97897.01;110034;1242;59760;-71
2023/03/17 02:50:34;;;;;;;;;;;;;;;-2.34;94.72;97898.48;110068;1244;59693;-70
2023/03/17 02:53:03;;;;;;;;;;;;;;;-2.41;95.59;97900.96;109852;1243;71905;-70
2023/03/17 02:55:33;;;;;;;;;;;;;;;-2.49;94.76;97903.81;110055;1245;69094;-71
2023/03/17 02:58:03;;;;;;;;;;;;;;;-2.57;93.38;97906.46;110010;1245;68405;-70
2023/03/17 03:00:33;;;;;;;;;;;;;;;-2.64;93.36;97908.08;109878;1243;59750;-70
2023/03/17 03:03:05;;;;;;;;;;;;;;;-2.71;93.46;97910.22;109840;1245;59704;-69
2023/03/17 03:05:35;;;;;;;;;;;;;;;-2.75;95.15;97911.98;110089;1244;70060;-70
2023/03/17 03:08:04;;;;;;;;;;;;;;;-2.80;92.48;97912.02;110043;1244;69142;-70
2023/03/17 03:10:35;;;;;;;;;;;;;;;-2.78;92.05;97917.13;109909;1244;69141;-70
2023/03/17 03:13:04;;;;;;;;;;;;;;;-2.74;92.89;97916.56;109809;1245;59644;-70
2023/03/17 03:15:34;;;;;;;;;;;;;;;-2.69;92.79;97919.58;109905;1243;59743;-70
2023/03/17 03:18:04;;;;;;;;;;;;;;;-2.67;92.61;97927.59;109879;1245;71624;-70
2023/03/17 03:20:34;;;;;;;;;;;;;;;-2.68;92.56;97929.47;109768;1244;69465;-71
2023/03/17 03:23:04;;;;;;;;;;;;;;;-2.73;94.21;97934.65;109792;1245;69884;-70
2023/03/17 03:25:36;;;;;;;;;;;;;;;-2.80;96.02;97936.42;109939;1243;59742;-70
2023/03/17 03:28:07;;;;;;;;;;;;;;;-2.88;95.12;97937.86;109844;1244;60084;-70
2023/03/17 03:30:37;;;;;;;;;;;;;;;-2.94;93.61;97936.93;109795;1245;71675;-70
2023/03/17 03:33:09;;;;;;;;;;;;;;;-2.96;93.20;97941.89;109811;1243;68606;-70
2023/03/17 03:35:39;;;;;;;;;;;;;;;-2.93;93.68;97944.25;109824;1245;69673;-73
2023/03/17 03:38:10;;;;;;;;;;;;;;;-2.91;94.11;97944.91;109910;1244;59754;-71
2023/03/17 03:40:41;;;;;;;;;;;;;;;-2.89;93.99;97950.00;109915;1245;59673;-71
2023/03/17 03:43:12;;;;;;;;;;;;;;;-2.91;93.88;97951.23;109833;1244;71396;-71
2023/03/17 03:45:53;;;;;;;;;;;;;;;-2.94;94.23;97954.84;110112;1244;69227;-70
2023/03/17 03:48:23;;;;;;;;;;;;;;;-3.00;95.88;97954.90;110002;1245;69728;-71
2023/03/17 03:50:57;;;;;;;;;;;;;;;-3.07;96.47;97958.21;109847;1244;59825;-70
2023/03/17 03:53:27;;;;;;;;;;;;;;;-3.14;94.29;97957.92;110014;1245;59727;-70
2023/03/17 03:55:57;;;;;;;;;;;;;;;-3.17;95.04;97959.33;110054;1244;71215;-71
2023/03/17 03:58:26;;;;;;;;;;;;;;;-3.20;97.79;97961.58;109960;1244;68498;-71
2023/03/17 04:00:55;;;;;;;;;;;;;;;-3.25;97.51;97967.06;109889;1245;69232;-71
2023/03/17 04:03:25;;;;;;;;;;;;;;;-3.29;97.16;97968.98;109852;1245;59977;-70
2023/03/17 04:05:55;;;;;;;;;;;;;;;-3.35;96.38;97971.08;109903;1245;59969;-70
2023/03/17 04:08:26;;;;;;;;;;;;;;;-3.37;94.32;97976.56;110036;1245;70681;-71
2023/03/17 04:10:56;;;;;;;;;;;;;;;-3.37;93.45;97974.67;110013;1244;69155;-71
2023/03/17 04:13:25;;;;;;;;;;;;;;;-3.35;93.93;97980.45;109864;1246;69301;-71
2023/03/17 04:15:55;;;;;;;;;;;;;;;-3.34;94.80;97984.35;110101;1243;59687;-70
2023/03/17 04:18:26;;;;;;;;;;;;;;;-3.35;94.22;97987.80;110261;1243;59728;-70
2023/03/17 04:20:55;;;;;;;;;;;;;;;-3.38;93.85;97990.88;109962;1245;70661;-69
2023/03/17 04:23:27;;;;;;;;;;;;;;;-3.39;93.06;97992.59;109983;1242;69496;-70
2023/03/17 04:25:57;;;;;;;;;;;;;;;-3.36;93.27;97994.10;110061;1246;69361;-70
2023/03/17 04:28:27;;;;;;;;;;;;;;;-3.31;93.63;97998.84;109956;1245;59757;-70
2023/03/17 04:30:58;;;;;;;;;;;;;;;-3.31;93.49;98003.77;109995;1244;60202;-71
2023/03/17 04:33:28;;;;;;;;;;;;;;;-3.32;93.20;98006.69;109937;1245;71239;-70
2023/03/17 04:35:58;;;;;;;;;;;;;;;-3.36;93.59;98007.05;110007;1244;67808;-69
2023/03/17 04:38:27;;;;;;;;;;;;;;;-3.38;94.03;98005.19;109908;1244;69891;-69
2023/03/17 04:40:56;;;;;;;;;;;;;;;-3.41;94.16;98005.39;110079;1244;59636;-70
2023/03/17 04:43:26;;;;;;;;;;;;;;;-3.45;93.96;98004.91;109792;1244;59687;-69
2023/03/17 04:45:55;;;;;;;;;;;;;;;-3.51;93.71;98006.65;109835;1245;71521;-70
2023/03/17 04:48:24;;;;;;;;;;;;;;;-3.57;93.52;98011.98;109808;1245;68104;-70
2023/03/17 04:50:54;;;;;;;;;;;;;;;-3.60;93.20;98008.94;109871;1245;69257;-70
2023/03/17 04:53:23;;;;;;;;;;;;;;;-3.58;94.41;98013.52;109838;1245;59726;-70
2023/03/17 04:55:52;;;;;;;;;;;;;;;-3.58;93.86;98014.55;109825;1244;59722;-70
2023/03/17 04:58:23;;;;;;;;;;;;;;;-3.57;94.71;98012.65;110042;1244;70449;-70
2023/03/17 05:00:59;;;;;;;;;;;;;;;-3.55;93.98;98017.08;110021;1245;69465;-70
2023/03/17 05:03:30;;;;;;;;;;;;;;;-3.48;93.93;98010.73;110036;1245;69249;-70
2023/03/17 05:05:59;;;;;;;;;;;;;;;-3.32;94.07;98010.77;110032;1244;59771;-70
2023/03/17 05:08:28;;;;;;;;;;;;;;;-3.12;95.63;98016.91;109826;1245;59685;-70
2023/03/17 05:10:58;;;;;;;;;;;;;;;-2.87;97.02;98022.14;109780;1243;71808;-71
2023/03/17 05:13:27;;;;;;;;;;;;;;;-2.45;98.73;98027.33;110018;1244;69395;-71
2023/03/17 05:15:58;;;;;;;;;;;;;;;-2.19;96.93;98028.57;109832;1243;69306;-71
2023/03/17 05:18:27;;;;;;;;;;;;;;;-1.92;94.50;98026.17;110040;1244;60143;-71
2023/03/17 05:20:56;;;;;;;;;;;;;;;-1.75;92.04;98023.20;109897;1244;59644;-71
2023/03/17 05:23:25;;;;;;;;;;;;;;;-1.58;88.92;98021.44;109894;1245;71407;-71
2023/03/17 05:25:54;;;;;;;;;;;;;;;-1.37;87.84;98017.86;109943;1244;68298;-71
2023/03/17 05:28:23;;;;;;;;;;;;;;;-1.17;85.80;98023.17;110041;1245;70145;-71
2023/03/17 05:30:53;;;;;;;;;;;;;;;-0.98;86.11;98023.91;110050;1244;59773;-72
2023/03/17 05:33:21;;;;;;;;;;;;;;;-0.89;85.52;98022.55;110152;1245;59730;-71
2023/03/17 05:35:51;;;;;;;;;;;;;;;-0.73;85.16;98020.55;110139;1244;70422;-72
2023/03/17 05:38:20;;;;;;;;;;;;;;;-0.53;85.08;98029.25;110027;1244;68509;-71
2023/03/17 05:40:50;;;;;;;;;;;;;;;-0.18;87.31;98027.91;109977;1245;68470;-72
2023/03/17 05:43:19;;;;;;;;;;;;;;;0.06;86.42;98031.86;109904;1245;59682;-71
2023/03/17 05:45:49;;;;;;;;;;;;;;;0.17;84.28;98030.27;109920;1245;59668;-71
2023/03/17 05:48:18;;;;;;;;;;;;;;;0.33;83.53;98025.79;110036;1244;71382;-71
2023/03/17 05:50:47;;;;;;;;;;;;;;;0.52;84.38;98024.01;110100;1245;69224;-71
2023/03/17 05:53:16;;;;;;;;;;;;;;;0.66;81.21;98022.30;110062;1244;69764;-71
2023/03/17 05:55:46;;;;;;;;;;;;;;;0.87;82.57;98027.44;109923;1246;59699;-73
2023/03/17 05:58:15;;;;;;;;;;;;;;;0.95;79.88;98028.98;110044;1244;60169;-70
2023/03/17 06:00:45;;;;;;;;;;;;;;;1.12;78.18;98031.48;109987;1245;71323;-70
2023/03/17 06:03:13;;;;;;;;;;;;;;;1.09;76.60;98029.16;110021;1251;69803;-71
2023/03/17 06:05:43;;;;;;;;;;;;;;;1.25;75.83;98034.77;109789;1244;69121;-70
2023/03/17 06:08:12;;;;;;;;;;;;;;;1.58;76.79;98034.05;109737;1243;59830;-70
2023/03/17 06:10:41;;;;;;;;;;;;;;;1.71;74.43;98035.24;110086;1245;59742;-70
2023/03/17 06:13:10;;;;;;;;;;;;;;;1.95;74.68;98038.70;109836;1243;71986;-70
2023/03/17 06:15:41;;;;;;;;;;;;;;;2.05;74.43;98036.02;109869;1245;69293;-70
2023/03/17 06:18:11;;;;;;;;;;;;;;;2.23;73.63;98038.08;110094;1245;69863;-70
2023/03/17 06:20:40;;;;;;;;;;;;;;;2.39;73.61;98040.86;110009;1244;59704;-70
2023/03/17 06:23:09;;;;;;;;;;;;;;;2.79;76.08;98044.79;109802;1244;59695;-70
2023/03/17 06:25:38;;;;;;;;;;;;;;;3.08;73.79;98045.75;109828;1245;71409;-70
2023/03/17 06:28:06;;;;;;;;;;;;;;;3.07;72.17;98045.27;109860;1245;69175;-70
2023/03/17 06:30:36;;;;;;;;;;;;;;;3.33;73.55;98047.02;109804;1244;69475;-70
2023/03/17 06:33:08;;;;;;;;;;;;;;;3.38;71.40;98046.16;109847;1245;59678;-70
2023/03/17 06:35:37;;;;;;;;;;;;;;;3.67;70.48;98048.42;109834;1244;59745;-70
2023/03/17 06:38:06;;;;;;;;;;;;;;;3.70;70.08;98054.86;109834;1245;71785;-70
2023/03/17 06:40:35;;;;;;;;;;;;;;;4.04;69.31;98054.36;109884;1245;70214;-70
2023/03/17 06:43:05;;;;;;;;;;;;;;;4.27;66.68;98052.15;109950;1245;68542;-70
2023/03/17 06:45:34;;;;;;;;;;;;;;;4.42;63.53;98051.89;109848;1245;59712;-70
2023/03/17 06:48:03;;;;;;;;;;;;;;;4.64;61.44;98047.95;109839;1245;59785;-70
2023/03/17 06:50:32;;;;;;;;;;;;;;;4.81;58.66;98048.48;109895;1244;71334;-70
2023/03/17 06:53:01;;;;;;;;;;;;;;;4.88;60.81;98049.95;109860;1245;68496;-70
2023/03/17 06:55:30;;;;;;;;;;;;;;;5.18;59.80;98057.74;109836;1245;67750;-70
2023/03/17 06:58:01;;;;;;;;;;;;;;;5.59;54.22;98055.48;109868;1245;59747;-69
2023/03/17 07:00:31;;;;;;;;;;;;;;;5.77;54.43;98055.08;109860;1245;59742;-69
2023/03/17 07:03:01;;;;;;;;;;;;;;;6.12;54.95;98052.88;109871;1242;71805;-69
2023/03/17 07:05:31;;;;;;;;;;;;;;;6.56;52.88;98047.43;109956;1244;69811;-70
2023/03/17 07:08:00;;;;;;;;;;;;;;;6.93;53.10;98047.74;109860;1245;69584;-70
2023/03/17 07:10:32;;;;;;;;;;;;;;;7.24;48.84;98051.27;109918;1243;59745;-70
2023/03/17 07:13:01;;;;;;;;;;;;;;;7.36;48.03;98049.42;110367;1242;59714;-70
2023/03/17 07:15:33;;;;;;;;;;;;;;;7.84;49.08;98052.21;111310;1243;71421;-69
2023/03/17 07:18:03;;;;;;;;;;;;;;;7.89;46.24;98051.96;110984;1244;69496;-71
2023/03/17 07:20:32;;;;;;;;;;;;;;;7.95;45.37;98052.89;110007;1251;69843;-70
2023/03/17 07:23:01;;;;;;;;;;;;;;;8.45;47.27;98056.17;109948;1244;59750;-70
2023/03/17 07:25:30;;;;;;;;;;;;;;;8.77;49.72;98061.50;109891;1250;59705;-70
2023/03/17 07:27:59;;;;;;;;;;;;;;;9.31;45.34;98064.92;110040;1245;72507;-71
2023/03/17 07:30:28;;;;;;;;;;;;;;;9.34;45.61;98064.06;109907;1245;69689;-70
2023/03/17 07:32:57;;;;;;;;;;;;;;;9.63;42.53;98064.81;109897;1244;69822;-70
2023/03/17 07:35:27;;;;;;;;;;;;;;;9.71;41.70;98068.52;109828;1245;59754;-70
2023/03/17 07:37:56;;;;;;;;;;;;;;;9.73;40.37;98069.95;109968;1245;59699;-70
2023/03/17 07:40:25;;;;;;;;;;;;;;;10.06;41.11;98070.77;109882;1244;70774;-71
2023/03/17 07:42:54;;;;;;;;;;;;;;;9.92;39.42;98071.79;110070;1245;69830;-70
2023/03/17 07:45:23;;;;;;;;;;;;;;;10.39;40.33;98071.44;110026;1245;68896;-70
2023/03/17 07:47:54;;;;;;;;;;;;;;;10.35;37.95;98071.45;110024;1245;59761;-70
2023/03/17 07:50:23;;;;;;;;;;;;;;;9.96;37.01;98078.33;109954;1245;59706;-71
2023/03/17 07:52:52;;;;;;;;;;;;;;;10.38;37.78;98077.71;109957;1245;70646;-70
2023/03/17 07:55:21;;;;;;;;;;;;;;;10.61;35.66;98079.29;110055;1245;69122;-71
2023/03/17 07:57:50;;;;;;;;;;;;;;;10.63;36.33;98075.36;110064;1245;69351;-70
2023/03/17 08:00:20;;;;;;;;;;;;;;;11.18;36.95;98071.33;110007;1245;59705;-70
2023/03/17 08:02:50;;;;;;;;;;;;;;;11.47;35.00;98068.90;110084;1243;59628;-76
2023/03/17 08:05:36;;;;;;;;;;;;;;;11.70;36.56;98067.70;110005;1243;71163;-70
2023/03/17 08:08:05;;;;;;;;;;;;;;;12.08;36.18;98067.11;110055;1245;69961;-69
2023/03/17 08:10:34;;;;;;;;;;;;;;;12.24;35.96;98069.48;110079;1244;68520;-69
2023/03/17 08:13:04;;;;;;;;;;;;;;;12.53;34.45;98069.77;110041;1245;59673;-70
2023/03/17 08:15:33;;;;;;;;;;;;;;;12.39;31.64;98065.80;109886;1244;59646;-72
2023/03/17 08:18:02;;;;;;;;;;;;;;;12.32;31.94;98063.52;109822;1245;71761;-70
2023/03/17 08:20:32;;;;;;;;;;;;;;;12.57;31.38;98066.27;109858;1245;69880;-72
2023/03/17 08:23:02;;;;;;;;;;;;;;;12.77;30.76;98060.37;109831;1245;68508;-69
2023/03/17 08:25:30;;;;;;;;;;;;;;;12.96;31.53;98057.93;109844;1245;59726;-68
2023/03/17 08:27:59;;;;;;;;;;;;;;;13.44;31.99;98065.62;110075;1245;59691;-71
2023/03/17 08:30:28;;;;;;;;;;;;;;;13.72;28.85;98059.56;110077;1245;71309;-69
2023/03/17 08:33:02;;;;;;;;;;;;;;;14.07;30.58;98058.59;110008;1245;69859;-68
2023/03/17 08:35:31;;;;;;;;;;;;;;;14.51;30.44;98054.88;110064;1245;69360;-67
2023/03/17 08:38:01;;;;;;;;;;;;;;;14.46;29.29;98052.62;109917;1245;59761;-67
2023/03/17 08:40:31;;;;;;;;;;;;;;;14.52;28.71;98052.83;109772;1244;59637;-67
2023/03/17 08:43:01;;;;;;;;;;;;;;;14.47;27.50;98053.45;110166;1244;70767;-67
2023/03/17 08:45:32;;;;;;;;;;;;;;;14.43;28.56;98053.23;110046;1244;69272;-67
2023/03/17 08:48:02;;;;;;;;;;;;;;;13.33;26.56;98055.58;109851;1245;69853;-67
2023/03/17 08:50:30;;;;;;;;;;;;;;;13.31;28.11;98056.61;109933;1245;59750;-68
2023/03/17 08:53:00;;;;;;;;;;;;;;;13.87;29.33;98055.40;110025;1245;59710;-68
2023/03/17 08:55:29;;;;;;;;;;;;;;;14.48;27.99;98050.52;110182;1245;71980;-68
2023/03/17 08:57:58;;;;;;;;;;;;;;;14.86;26.39;98045.59;110112;1244;68410;-68
2023/03/17 09:00:27;;;;;;;;;;;;;;;15.21;26.11;98051.73;109986;1245;69185;-68
2023/03/17 09:02:57;;;;;;;;;;;;;;;15.45;24.79;98048.34;110241;1244;59705;-68
2023/03/17 09:05:27;;;;;;;;;;;;;;;14.13;25.34;98050.74;110090;1245;59679;-68
2023/03/17 09:07:56;;;;;;;;;;;;;;;13.04;25.95;98050.66;110163;1245;71817;-69
2023/03/17 09:10:25;;;;;;;;;;;;;;;12.77;26.37;98045.68;110100;1243;69023;-66
2023/03/17 09:13:00;;;;;;;;;;;;;;;12.18;27.72;98046.13;110120;1244;69176;-68
2023/03/17 09:15:32;;;;;;;;;;;;;;;12.62;28.00;98043.70;110145;1244;59699;-68
2023/03/17 09:18:02;;;;;;;;;;;;;;;13.33;27.85;98046.66;110115;1245;59628;-68
2023/03/17 09:20:31;;;;;;;;;;;;;;;13.88;27.78;98040.97;110149;1244;70775;-68
2023/03/17 09:23:04;;;;;;;;;;;;;;;14.51;28.46;98033.47;110139;1245;68485;-68
2023/03/17 09:25:36;;;;;;;;;;;;;;;14.59;27.88;98031.81;110081;1245;69864;-67
2023/03/17 09:28:06;;;;;;;;;;;;;;;15.65;27.55;98032.87;110090;1244;59755;-67
2023/03/17 09:30:35;;;;;;;;;;;;;;;15.59;26.45;98028.06;110150;1245;59633;-67
2023/03/17 09:33:04;;;;;;;;;;;;;;;15.57;25.31;98030.99;110146;1245;71996;-67
2023/03/17 09:35:33;;;;;;;;;;;;;;;15.64;25.46;98026.79;110105;1245;69712;-68
2023/03/17 09:38:01;;;;;;;;;;;;;;;16.49;25.36;98027.64;110099;1244;69726;-67
2023/03/17 09:40:32;;;;;;;;;;;;;;;16.58;24.96;98025.28;109795;1245;59658;-67
2023/03/17 09:43:05;;;;;;;;;;;;;;;16.37;23.58;98029.34;110100;1245;59726;-68
2023/03/17 09:45:37;;;;;;;;;;;;;;;15.12;25.48;98032.06;110118;1244;71821;-67
2023/03/17 09:48:10;;;;;;;;;;;;;;;13.81;27.09;98033.46;110175;1245;69541;-68
2023/03/17 09:50:46;;;;;;;;;;;;;;;13.02;28.91;98032.47;110110;1245;69349;-67
2023/03/17 09:53:17;;;;;;;;;;;;;;;12.59;29.21;98032.07;110174;1244;59743;-67
2023/03/17 09:55:47;;;;;;;;;;;;;;;11.97;29.54;98036.64;110124;1244;59689;-69
2023/03/17 09:58:19;;;;;;;;;;;;;;;11.38;30.01;98037.59;110108;1245;71978;-68
2023/03/17 10:00:48;;;;;;;;;;;;;;;10.74;30.46;98037.69;110141;1244;70209;-69
2023/03/17 10:03:24;;;;;;;;;;;;;;;10.18;30.09;98034.39;110134;1245;69145;-67
2023/03/17 10:06:07;;;;;;;;;;;;;;;9.99;31.97;98040.04;110092;1245;59683;-69
2023/03/17 10:08:45;;;;;;;;;;;;;;;9.83;33.12;98038.39;110170;1245;59651;-69
2023/03/17 10:11:49;;;;;;;;;;;;;;;9.69;33.83;98039.20;110151;1245;71963;-67
2023/03/17 10:14:50;;;;;;;;;;;;;;;10.55;32.15;98027.77;109408;1250;69032;-69
2023/03/17 10:17:21;;;;;;;;;;;;;;;11.39;31.81;98026.66;109857;1250;68522;-68
2023/03/17 10:19:59;;;;;;;;;;;;;;;12.21;30.72;98024.95;110106;1245;59750;-68
2023/03/17 10:22:35;;;;;;;;;;;;;;;13.01;29.15;98023.63;110035;1244;59699;-66
2023/03/17 10:25:15;;;;;;;;;;;;;;;13.30;29.05;98024.46;109895;1244;71976;-69
2023/03/17 10:27:56;;;;;;;;;;;;;;;14.45;27.46;98015.66;109916;1246;69232;-66
2023/03/17 10:30:25;;;;;;;;;;;;;;;15.38;25.97;98010.14;109913;1250;69277;-67
2023/03/17 10:32:56;;;;;;;;;;;;;;;16.13;25.48;98013.30;109794;1246;59760;-67
2023/03/17 10:35:25;;;;;;;;;;;;;;;16.53;24.65;98006.67;109473;1246;410709;-68
2023/03/17 10:37:54;;;;;;;;;;;;;;;16.52;24.53;98000.39;109759;1245;69676;-68
2023/03/17 10:40:44;;;;;;;;;;;;;;;16.69;24.49;98000.19;109849;1246;69077;-68
2023/03/17 10:43:18;;;;;;;;;;;;;;;15.98;24.73;97997.36;109765;1245;68778;-69
2023/03/17 10:46:07;;;;;;;;;;;;;;;17.05;24.65;97993.55;109744;1247;59681;-69
2023/03/17 10:48:36;;;;;;;;;;;;;;;17.21;25.07;97988.49;109756;1246;59710;-68
2023/03/17 10:51:09;;;;;;;;;;;;;;;16.93;24.29;97985.89;109770;1252;71228;-68
2023/03/17 10:53:42;;;;;;;;;;;;;;;16.85;24.95;97983.85;109880;1248;69175;-67
2023/03/17 10:56:19;;;;;;;;;;;;;;;16.86;25.25;97981.04;109766;1246;69268;-68
2023/03/17 10:58:49;;;;;;;;;;;;;;;17.20;24.93;97978.90;109766;1248;59739;-71
2023/03/17 11:01:26;;;;;;;;;;;;;;;16.68;25.01;97972.95;109802;1244;59703;-68
2023/03/17 11:03:56;;;;;;;;;;;;;;;16.25;24.50;97971.79;109716;1246;71195;-68
2023/03/17 11:06:41;;;;;;;;;;;;;;;15.46;25.26;97972.38;109865;1245;68246;-67
2023/03/17 11:09:15;;;;;;;;;;;;;;;14.92;26.38;97968.61;109848;1245;69948;-67
2023/03/17 11:11:47;;;;;;;;;;;;;;;15.34;26.53;97966.35;109925;1245;59664;-67
2023/03/17 11:14:17;;;;;;;;;;;;;;;15.62;25.46;97961.96;109939;1245;59686;-67
2023/03/17 11:16:52;;;;;;;;;;;;;;;16.63;24.47;97955.78;109925;1246;71405;-67
2023/03/17 11:19:39;;;;;;;;;;;;;;;17.48;24.48;97957.15;109931;1248;69236;-67
2023/03/17 11:22:13;;;;;;;;;;;;;;;18.06;23.40;97951.74;109903;1247;69315;-69
2023/03/17 11:25:05;;;;;;;;;;;;;;;17.79;22.55;97952.27;110081;1245;59750;-68
2023/03/17 11:27:39;;;;;;;;;;;;;;;18.09;21.91;97946.31;109983;1244;59646;-66
2023/03/17 11:30:15;;;;;;;;;;;;;;;17.81;22.35;97943.30;110156;1243;71487;-68
2023/03/17 11:32:47;;;;;;;;;;;;;;;18.37;22.09;97939.88;110133;1244;69166;-68
2023/03/17 11:35:33;;;;;;;;;;;;;;;18.72;22.57;97936.38;110100;1245;69705;-68
2023/03/17 11:38:02;;;;;;;;;;;;;;;17.40;21.76;97938.95;110112;1247;59758;-69
2023/03/17 11:40:38;;;;;;;;;;;;;;;17.44;22.41;97938.77;110114;1246;59636;-66
2023/03/17 11:43:25;;;;;;;;;;;;;;;17.35;22.26;97935.02;110126;1243;71960;-69
2023/03/17 11:45:54;;;;;;;;;;;;;;;17.25;23.41;97932.42;110138;1251;69486;-67
2023/03/17 11:48:26;;;;;;;;;;;;;;;16.47;22.47;97927.84;110134;1244;68504;-63
2023/03/17 11:50:58;;;;;;;;;;;;;;;16.50;23.21;97926.73;110163;1245;59741;-66
2023/03/17 11:54:02;;;;;;;;;;;;;;;15.56;24.95;97925.33;110142;1252;59689;-66
2023/03/17 11:56:46;;;;;;;;;;;;;;;14.14;25.34;97926.94;109536;1251;71171;-66
2023/03/17 11:59:15;;;;;;;;;;;;;;;13.73;25.51;97926.10;110111;1245;69804;-68
2023/03/17 12:01:54;;;;;;;;;;;;;;;13.61;26.19;97922.20;110127;1253;69251;-68
2023/03/17 12:04:33;;;;;;;;;;;;;;;13.80;24.96;97919.31;110128;1245;59718;-68
2023/03/17 12:07:22;;;;;;;;;;;;;;;13.60;24.85;97913.79;110152;1246;59640;-68
2023/03/17 12:10:03;;;;;;;;;;;;;;;14.75;25.88;97910.81;110186;1245;71862;-69
2023/03/17 12:12:38;;;;;;;;;;;;;;;15.61;24.67;97904.08;110189;1245;68735;-69
2023/03/17 12:15:13;;;;;;;;;;;;;;;15.78;24.51;97895.05;110160;1245;69872;-69
2023/03/17 12:17:55;;;;;;;;;;;;;;;16.39;24.23;97897.95;110125;1242;59771;-70
2023/03/17 12:20:28;;;;;;;;;;;;;;;16.70;23.73;97896.64;110126;1245;59684;-69
2023/03/17 12:23:16;;;;;;;;;;;;;;;17.15;22.86;97896.06;110177;1241;71159;-69
2023/03/17 12:25:59;;;;;;;;;;;;;;;17.95;21.97;97889.30;110195;1246;69801;-69
2023/03/17 12:28:33;;;;;;;;;;;;;;;18.24;21.69;97884.33;110136;1245;68692;-68
2023/03/17 12:31:06;;;;;;;;;;;;;;;18.52;20.94;97882.89;110176;1244;59729;-69
2023/03/17 12:33:35;;;;;;;;;;;;;;;19.65;21.33;97873.17;110165;1245;59683;-69
2023/03/17 12:36:04;;;;;;;;;;;;;;;18.80;19.89;97874.30;110087;1245;71813;-69
2023/03/17 12:38:34;;;;;;;;;;;;;;;17.97;20.36;97872.30;110144;1248;69492;-69
2023/03/17 12:41:13;;;;;;;;;;;;;;;17.54;20.57;97877.27;110150;1245;69755;-71
2023/03/17 12:43:54;;;;;;;;;;;;;;;16.96;21.11;97874.14;110164;1246;59728;-70
2023/03/17 12:46:23;;;;;;;;;;;;;;;17.22;21.38;97870.88;110167;1244;59688;-69
2023/03/17 12:48:55;;;;;;;;;;;;;;;16.85;21.96;97868.65;110129;1242;72639;-69
2023/03/17 12:51:47;;;;;;;;;;;;;;;16.77;22.01;97873.42;110186;1245;69835;-69
2023/03/17 12:54:20;;;;;;;;;;;;;;;17.76;22.38;97870.59;110134;1245;69352;-69
2023/03/17 12:56:49;;;;;;;;;;;;;;;17.89;20.99;97868.82;110148;1244;59687;-70
2023/03/17 12:59:20;;;;;;;;;;;;;;;18.31;20.97;97870.64;110170;1245;59694;-70
2023/03/17 13:01:58;;;;;;;;;;;;;;;18.33;20.24;97868.86;110103;1245;71818;-69